sensor_id;sensor_type;location;lat;lon;timestamp;temperature;humidity
10057;DHT22;5068;51.286;7.518;2023-04-06T00:00:23;0.30;51.50
10057;DHT22;5068;51.286;7.518;2023-04-06T00:01:55;0.30;51.70
10057;DHT22;5068;51.286;7.518;2023-04-06T00:03:28;0.30;51.70
10057;DHT22;5068;51.286;7.518;2023-04-06T00:05:02;0.20;51.70
10057;DHT22;5068;51.286;7.518;2023-04-06T00:06:37;0.20;51.80
10057;DHT22;5068;51.286;7.518;2023-04-06T00:08:10;0.20;51.70
10057;DHT22;5068;51.286;7.518;2023-04-06T00:09:43;0.20;51.80
10057;DHT22;5068;51.286;7.518;2023-04-06T00:11:16;0.20;52.40
10057;DHT22;5068;51.286;7.518;2023-04-06T00:12:49;0.20;51.70
10057;DHT22;5068;51.286;7.518;2023-04-06T00:14:22;0.20;51.60
10057;DHT22;5068;51.286;7.518;2023-04-06T00:15:55;0.20;51.80
10057;DHT22;5068;51.286;7.518;2023-04-06T00:17:28;0.10;51.70
10057;DHT22;5068;51.286;7.518;2023-04-06T00:19:02;0.10;51.80
10057;DHT22;5068;51.286;7.518;2023-04-06T00:20:35;0.10;51.80
10057;DHT22;5068;51.286;7.518;2023-04-06T00:22:10;0.10;52.00
10057;DHT22;5068;51.286;7.518;2023-04-06T00:23:42;0.10;52.00
10057;DHT22;5068;51.286;7.518;2023-04-06T00:25:16;0.10;52.00
10057;DHT22;5068;51.286;7.518;2023-04-06T00:26:48;0.10;52.00
10057;DHT22;5068;51.286;7.518;2023-04-06T00:28:21;0.10;52.10
10057;DHT22;5068;51.286;7.518;2023-04-06T00:29:57;0.10;52.10
10057;DHT22;5068;51.286;7.518;2023-04-06T00:31:30;0.10;52.10
10057;DHT22;5068;51.286;7.518;2023-04-06T00:33:03;0.10;52.20
10057;DHT22;5068;51.286;7.518;2023-04-06T00:34:36;0.00;52.30
10057;DHT22;5068;51.286;7.518;2023-04-06T00:36:09;0.00;52.40
10057;DHT22;5068;51.286;7.518;2023-04-06T00:37:46;0.00;52.30
10057;DHT22;5068;51.286;7.518;2023-04-06T00:39:19;0.10;52.70
10057;DHT22;5068;51.286;7.518;2023-04-06T00:40:52;-0.10;52.40
10057;DHT22;5068;51.286;7.518;2023-04-06T00:42:25;-0.10;52.40
10057;DHT22;5068;51.286;7.518;2023-04-06T00:43:58;-0.10;52.40
10057;DHT22;5068;51.286;7.518;2023-04-06T00:45:31;0.00;52.60
10057;DHT22;5068;51.286;7.518;2023-04-06T00:47:05;-0.10;52.60
10057;DHT22;5068;51.286;7.518;2023-04-06T00:48:38;-0.10;52.60
10057;DHT22;5068;51.286;7.518;2023-04-06T00:50:12;0.00;52.60
10057;DHT22;5068;51.286;7.518;2023-04-06T00:51:45;-0.10;52.50
10057;DHT22;5068;51.286;7.518;2023-04-06T00:53:21;-0.10;52.60
10057;DHT22;5068;51.286;7.518;2023-04-06T00:54:54;-0.20;52.60
10057;DHT22;5068;51.286;7.518;2023-04-06T00:56:27;-0.20;52.70
10057;DHT22;5068;51.286;7.518;2023-04-06T00:58:00;-0.20;52.50
10057;DHT22;5068;51.286;7.518;2023-04-06T00:59:38;-0.20;52.60
10057;DHT22;5068;51.286;7.518;2023-04-06T01:01:15;-0.20;52.60
10057;DHT22;5068;51.286;7.518;2023-04-06T01:02:58;-0.20;52.70
10057;DHT22;5068;51.286;7.518;2023-04-06T01:04:39;-0.20;52.70
10057;DHT22;5068;51.286;7.518;2023-04-06T01:06:18;-0.20;52.70
10057;DHT22;5068;51.286;7.518;2023-04-06T01:07:59;-0.30;52.70
10057;DHT22;5068;51.286;7.518;2023-04-06T01:09:35;-0.30;52.90
10057;DHT22;5068;51.286;7.518;2023-04-06T01:11:13;-0.30;52.90
10057;DHT22;5068;51.286;7.518;2023-04-06T01:12:46;-0.30;52.80
10057;DHT22;5068;51.286;7.518;2023-04-06T01:14:26;-0.30;52.90
10057;DHT22;5068;51.286;7.518;2023-04-06T01:16:04;-0.30;52.90
10057;DHT22;5068;51.286;7.518;2023-04-06T01:17:54;-0.30;53.10
10057;DHT22;5068;51.286;7.518;2023-04-06T01:19:28;-0.40;52.90
10057;DHT22;5068;51.286;7.518;2023-04-06T01:21:01;-0.30;53.00
10057;DHT22;5068;51.286;7.518;2023-04-06T01:22:35;-0.40;53.10
10057;DHT22;5068;51.286;7.518;2023-04-06T01:24:09;-0.40;53.10
10057;DHT22;5068;51.286;7.518;2023-04-06T01:26:03;-0.40;53.20
10057;DHT22;5068;51.286;7.518;2023-04-06T01:27:37;-0.40;53.10
10057;DHT22;5068;51.286;7.518;2023-04-06T01:29:16;-0.40;53.10
10057;DHT22;5068;51.286;7.518;2023-04-06T01:30:49;-0.50;53.10
10057;DHT22;5068;51.286;7.518;2023-04-06T01:32:41;-0.50;53.10
10057;DHT22;5068;51.286;7.518;2023-04-06T01:34:19;-0.50;53.10
10057;DHT22;5068;51.286;7.518;2023-04-06T01:35:53;-0.50;53.00
10057;DHT22;5068;51.286;7.518;2023-04-06T01:37:25;-0.50;52.80
10057;DHT22;5068;51.286;7.518;2023-04-06T01:39:02;-0.50;53.00
10057;DHT22;5068;51.286;7.518;2023-04-06T01:40:40;-0.50;53.10
10057;DHT22;5068;51.286;7.518;2023-04-06T01:42:13;-0.50;53.00
10057;DHT22;5068;51.286;7.518;2023-04-06T01:43:47;-0.60;53.00
10057;DHT22;5068;51.286;7.518;2023-04-06T01:45:20;-0.60;53.20
10057;DHT22;5068;51.286;7.518;2023-04-06T01:46:56;-0.60;53.20
10057;DHT22;5068;51.286;7.518;2023-04-06T01:48:29;-0.60;53.20
10057;DHT22;5068;51.286;7.518;2023-04-06T01:50:02;-0.60;53.10
10057;DHT22;5068;51.286;7.518;2023-04-06T01:51:41;-0.60;53.20
10057;DHT22;5068;51.286;7.518;2023-04-06T01:53:17;-0.60;53.20
10057;DHT22;5068;51.286;7.518;2023-04-06T01:54:51;-0.60;53.30
10057;DHT22;5068;51.286;7.518;2023-04-06T01:56:38;-0.70;53.30
10057;DHT22;5068;51.286;7.518;2023-04-06T01:58:37;-0.70;53.30
10057;DHT22;5068;51.286;7.518;2023-04-06T02:00:12;-0.70;53.10
10057;DHT22;5068;51.286;7.518;2023-04-06T02:01:50;-0.70;53.30
10057;DHT22;5068;51.286;7.518;2023-04-06T02:03:24;-0.70;53.30
10057;DHT22;5068;51.286;7.518;2023-04-06T02:05:05;-0.70;53.30
10057;DHT22;5068;51.286;7.518;2023-04-06T02:06:41;-0.70;53.70
10057;DHT22;5068;51.286;7.518;2023-04-06T02:08:16;-0.70;53.30
10057;DHT22;5068;51.286;7.518;2023-04-06T02:09:54;-0.80;53.30
10057;DHT22;5068;51.286;7.518;2023-04-06T02:11:33;-0.80;53.40
10057;DHT22;5068;51.286;7.518;2023-04-06T02:13:07;-0.80;53.30
10057;DHT22;5068;51.286;7.518;2023-04-06T02:14:40;-0.80;53.30
10057;DHT22;5068;51.286;7.518;2023-04-06T02:16:13;-0.80;53.40
10057;DHT22;5068;51.286;7.518;2023-04-06T02:17:49;-0.90;53.40
10057;DHT22;5068;51.286;7.518;2023-04-06T02:19:22;-0.90;53.50
10057;DHT22;5068;51.286;7.518;2023-04-06T02:20:55;-0.90;53.60
10057;DHT22;5068;51.286;7.518;2023-04-06T02:22:29;-0.90;53.60
10057;DHT22;5068;51.286;7.518;2023-04-06T02:24:02;-0.90;53.70
10057;DHT22;5068;51.286;7.518;2023-04-06T02:25:36;-0.90;53.80
10057;DHT22;5068;51.286;7.518;2023-04-06T02:27:10;-0.90;53.80
10057;DHT22;5068;51.286;7.518;2023-04-06T02:28:42;-1.00;53.70
10057;DHT22;5068;51.286;7.518;2023-04-06T02:30:16;-1.00;53.80
10057;DHT22;5068;51.286;7.518;2023-04-06T02:31:48;-1.00;53.70
10057;DHT22;5068;51.286;7.518;2023-04-06T02:33:22;-1.00;53.70
10057;DHT22;5068;51.286;7.518;2023-04-06T02:34:55;-1.00;53.80
10057;DHT22;5068;51.286;7.518;2023-04-06T02:36:29;-1.00;53.90
10057;DHT22;5068;51.286;7.518;2023-04-06T02:38:03;-1.00;53.80
10057;DHT22;5068;51.286;7.518;2023-04-06T02:39:36;-1.00;54.00
10057;DHT22;5068;51.286;7.518;2023-04-06T02:41:13;-1.00;54.00
10057;DHT22;5068;51.286;7.518;2023-04-06T02:42:47;-1.00;53.90
10057;DHT22;5068;51.286;7.518;2023-04-06T02:44:23;-1.00;53.80
10057;DHT22;5068;51.286;7.518;2023-04-06T02:45:57;-1.00;54.00
10057;DHT22;5068;51.286;7.518;2023-04-06T02:47:30;-1.10;54.00
10057;DHT22;5068;51.286;7.518;2023-04-06T02:49:04;-1.10;54.00
10057;DHT22;5068;51.286;7.518;2023-04-06T02:50:39;-1.10;54.00
10057;DHT22;5068;51.286;7.518;2023-04-06T02:52:12;-1.10;54.10
10057;DHT22;5068;51.286;7.518;2023-04-06T02:53:46;-1.10;54.20
10057;DHT22;5068;51.286;7.518;2023-04-06T02:55:19;-1.10;54.20
10057;DHT22;5068;51.286;7.518;2023-04-06T02:56:55;-1.10;54.20
10057;DHT22;5068;51.286;7.518;2023-04-06T02:58:36;-1.10;54.20
10057;DHT22;5068;51.286;7.518;2023-04-06T03:00:10;-1.10;54.20
10057;DHT22;5068;51.286;7.518;2023-04-06T03:01:46;-1.10;54.30
10057;DHT22;5068;51.286;7.518;2023-04-06T03:03:19;-1.10;54.20
10057;DHT22;5068;51.286;7.518;2023-04-06T03:04:53;-1.10;54.20
10057;DHT22;5068;51.286;7.518;2023-04-06T03:06:33;-1.20;54.10
10057;DHT22;5068;51.286;7.518;2023-04-06T03:08:15;-1.10;54.20
10057;DHT22;5068;51.286;7.518;2023-04-06T03:09:50;-1.10;54.20
10057;DHT22;5068;51.286;7.518;2023-04-06T03:11:22;-1.10;54.20
10057;DHT22;5068;51.286;7.518;2023-04-06T03:12:58;-1.20;54.10
10057;DHT22;5068;51.286;7.518;2023-04-06T03:14:46;-1.20;54.10
10057;DHT22;5068;51.286;7.518;2023-04-06T03:16:20;-1.20;54.10
10057;DHT22;5068;51.286;7.518;2023-04-06T03:17:55;-1.20;54.10
10057;DHT22;5068;51.286;7.518;2023-04-06T03:19:39;-1.20;54.10
10057;DHT22;5068;51.286;7.518;2023-04-06T03:21:13;-1.20;54.10
10057;DHT22;5068;51.286;7.518;2023-04-06T03:22:52;-1.20;54.20
10057;DHT22;5068;51.286;7.518;2023-04-06T03:24:29;-1.20;54.10
10057;DHT22;5068;51.286;7.518;2023-04-06T03:26:03;-1.20;54.10
10057;DHT22;5068;51.286;7.518;2023-04-06T03:27:36;-1.30;54.10
10057;DHT22;5068;51.286;7.518;2023-04-06T03:29:12;-1.30;54.00
10057;DHT22;5068;51.286;7.518;2023-04-06T03:30:45;-1.30;54.20
10057;DHT22;5068;51.286;7.518;2023-04-06T03:32:22;-1.30;54.30
10057;DHT22;5068;51.286;7.518;2023-04-06T03:33:55;-1.30;54.40
10057;DHT22;5068;51.286;7.518;2023-04-06T03:35:39;-1.30;54.50
10057;DHT22;5068;51.286;7.518;2023-04-06T03:37:13;-1.30;54.60
10057;DHT22;5068;51.286;7.518;2023-04-06T03:38:52;-1.40;54.50
10057;DHT22;5068;51.286;7.518;2023-04-06T03:40:26;-1.40;54.50
10057;DHT22;5068;51.286;7.518;2023-04-06T03:41:59;-1.40;54.50
10057;DHT22;5068;51.286;7.518;2023-04-06T03:43:47;-1.40;54.50
10057;DHT22;5068;51.286;7.518;2023-04-06T03:45:23;-1.40;54.70
10057;DHT22;5068;51.286;7.518;2023-04-06T03:46:56;-1.40;54.70
10057;DHT22;5068;51.286;7.518;2023-04-06T03:48:29;-1.40;54.60
10057;DHT22;5068;51.286;7.518;2023-04-06T03:50:07;-1.40;54.70
10057;DHT22;5068;51.286;7.518;2023-04-06T03:51:41;-1.50;55.30
10057;DHT22;5068;51.286;7.518;2023-04-06T03:53:13;-1.50;54.60
10057;DHT22;5068;51.286;7.518;2023-04-06T03:54:47;-1.50;54.60
10057;DHT22;5068;51.286;7.518;2023-04-06T03:56:19;-1.50;54.70
10057;DHT22;5068;51.286;7.518;2023-04-06T03:57:53;-1.50;54.80
10057;DHT22;5068;51.286;7.518;2023-04-06T03:59:26;-1.50;54.70
10057;DHT22;5068;51.286;7.518;2023-04-06T04:01:00;-1.50;54.80
10057;DHT22;5068;51.286;7.518;2023-04-06T04:02:33;-1.50;54.90
10057;DHT22;5068;51.286;7.518;2023-04-06T04:04:06;-1.50;54.90
10057;DHT22;5068;51.286;7.518;2023-04-06T04:05:39;-1.40;54.90
10057;DHT22;5068;51.286;7.518;2023-04-06T04:07:13;-1.50;55.00
10057;DHT22;5068;51.286;7.518;2023-04-06T04:08:46;-1.50;54.90
10057;DHT22;5068;51.286;7.518;2023-04-06T04:10:19;-1.50;54.90
10057;DHT22;5068;51.286;7.518;2023-04-06T04:11:51;-1.50;54.90
10057;DHT22;5068;51.286;7.518;2023-04-06T04:13:25;-1.50;54.90
10057;DHT22;5068;51.286;7.518;2023-04-06T04:14:59;-1.50;54.90
10057;DHT22;5068;51.286;7.518;2023-04-06T04:16:33;-1.50;54.90
10057;DHT22;5068;51.286;7.518;2023-04-06T04:18:07;-1.60;54.80
10057;DHT22;5068;51.286;7.518;2023-04-06T04:19:40;-1.60;54.80
10057;DHT22;5068;51.286;7.518;2023-04-06T04:21:14;-1.60;54.80
10057;DHT22;5068;51.286;7.518;2023-04-06T04:22:47;-1.60;54.80
10057;DHT22;5068;51.286;7.518;2023-04-06T04:24:20;-1.60;54.80
10057;DHT22;5068;51.286;7.518;2023-04-06T04:25:54;-1.60;54.90
10057;DHT22;5068;51.286;7.518;2023-04-06T04:27:27;-1.60;54.90
10057;DHT22;5068;51.286;7.518;2023-04-06T04:29:01;-1.60;55.00
10057;DHT22;5068;51.286;7.518;2023-04-06T04:30:33;-1.60;55.00
10057;DHT22;5068;51.286;7.518;2023-04-06T04:32:13;-1.60;55.00
10057;DHT22;5068;51.286;7.518;2023-04-06T04:33:46;-1.70;54.90
10057;DHT22;5068;51.286;7.518;2023-04-06T04:35:26;-1.70;54.90
10057;DHT22;5068;51.286;7.518;2023-04-06T04:37:00;-1.70;55.00
10057;DHT22;5068;51.286;7.518;2023-04-06T04:38:53;-1.70;55.00
10057;DHT22;5068;51.286;7.518;2023-04-06T04:40:27;-1.70;55.10
10057;DHT22;5068;51.286;7.518;2023-04-06T04:42:09;-1.70;55.10
10057;DHT22;5068;51.286;7.518;2023-04-06T04:43:48;-1.70;55.00
10057;DHT22;5068;51.286;7.518;2023-04-06T04:45:26;-1.70;55.00
10057;DHT22;5068;51.286;7.518;2023-04-06T04:47:00;-1.70;55.00
10057;DHT22;5068;51.286;7.518;2023-04-06T04:48:45;-1.80;55.00
10057;DHT22;5068;51.286;7.518;2023-04-06T04:50:18;-1.80;55.10
10057;DHT22;5068;51.286;7.518;2023-04-06T04:51:54;-1.80;55.00
10057;DHT22;5068;51.286;7.518;2023-04-06T04:53:35;-1.80;55.00
10057;DHT22;5068;51.286;7.518;2023-04-06T04:55:19;-1.80;55.10
10057;DHT22;5068;51.286;7.518;2023-04-06T04:56:57;-1.80;55.30
10057;DHT22;5068;51.286;7.518;2023-04-06T04:58:42;-1.80;55.20
10057;DHT22;5068;51.286;7.518;2023-04-06T05:00:16;-1.80;55.80
10057;DHT22;5068;51.286;7.518;2023-04-06T05:01:50;-1.80;55.30
10057;DHT22;5068;51.286;7.518;2023-04-06T05:03:37;-1.80;55.10
10057;DHT22;5068;51.286;7.518;2023-04-06T05:05:17;-1.80;55.40
10057;DHT22;5068;51.286;7.518;2023-04-06T05:06:50;-1.80;55.30
10057;DHT22;5068;51.286;7.518;2023-04-06T05:08:24;-1.90;55.10
10057;DHT22;5068;51.286;7.518;2023-04-06T05:09:57;-1.80;55.30
10057;DHT22;5068;51.286;7.518;2023-04-06T05:11:33;-1.90;55.20
10057;DHT22;5068;51.286;7.518;2023-04-06T05:13:07;-1.90;55.30
10057;DHT22;5068;51.286;7.518;2023-04-06T05:14:41;-1.90;55.30
10057;DHT22;5068;51.286;7.518;2023-04-06T05:16:18;-1.90;55.40
10057;DHT22;5068;51.286;7.518;2023-04-06T05:17:51;-1.80;55.50
10057;DHT22;5068;51.286;7.518;2023-04-06T05:19:29;-1.90;55.50
10057;DHT22;5068;51.286;7.518;2023-04-06T05:21:04;-1.90;55.40
10057;DHT22;5068;51.286;7.518;2023-04-06T05:23:01;-1.90;55.50
10057;DHT22;5068;51.286;7.518;2023-04-06T05:24:35;-1.90;55.60
10057;DHT22;5068;51.286;7.518;2023-04-06T05:26:11;-1.90;55.50
10057;DHT22;5068;51.286;7.518;2023-04-06T05:27:44;-1.90;55.60
10057;DHT22;5068;51.286;7.518;2023-04-06T05:29:30;-1.90;55.60
10057;DHT22;5068;51.286;7.518;2023-04-06T05:31:04;-1.90;55.60
10057;DHT22;5068;51.286;7.518;2023-04-06T05:32:47;-1.90;55.50
10057;DHT22;5068;51.286;7.518;2023-04-06T05:34:21;-1.90;55.60
10057;DHT22;5068;51.286;7.518;2023-04-06T05:35:55;-1.90;55.70
10057;DHT22;5068;51.286;7.518;2023-04-06T05:37:30;-1.90;55.60
10057;DHT22;5068;51.286;7.518;2023-04-06T05:39:04;-1.90;55.80
10057;DHT22;5068;51.286;7.518;2023-04-06T05:40:42;-1.90;55.80
10057;DHT22;5068;51.286;7.518;2023-04-06T05:42:19;-1.90;55.80
10057;DHT22;5068;51.286;7.518;2023-04-06T05:43:57;-1.90;55.90
10057;DHT22;5068;51.286;7.518;2023-04-06T05:45:30;-1.90;55.90
10057;DHT22;5068;51.286;7.518;2023-04-06T05:47:03;-1.90;55.90
10057;DHT22;5068;51.286;7.518;2023-04-06T05:48:37;-1.90;56.00
10057;DHT22;5068;51.286;7.518;2023-04-06T05:50:11;-1.90;56.00
10057;DHT22;5068;51.286;7.518;2023-04-06T05:51:45;-1.90;56.00
10057;DHT22;5068;51.286;7.518;2023-04-06T05:53:19;-1.90;56.10
10057;DHT22;5068;51.286;7.518;2023-04-06T05:54:59;-1.90;56.10
10057;DHT22;5068;51.286;7.518;2023-04-06T05:56:33;-1.90;56.10
10057;DHT22;5068;51.286;7.518;2023-04-06T05:58:07;-1.90;56.30
10057;DHT22;5068;51.286;7.518;2023-04-06T05:59:40;-1.80;56.30
10057;DHT22;5068;51.286;7.518;2023-04-06T06:01:14;-1.80;56.40
10057;DHT22;5068;51.286;7.518;2023-04-06T06:02:50;-1.90;56.30
10057;DHT22;5068;51.286;7.518;2023-04-06T06:04:28;-1.80;56.50
10057;DHT22;5068;51.286;7.518;2023-04-06T06:06:02;-1.80;56.50
10057;DHT22;5068;51.286;7.518;2023-04-06T06:07:49;-1.80;56.70
10057;DHT22;5068;51.286;7.518;2023-04-06T06:09:24;-1.80;56.70
10057;DHT22;5068;51.286;7.518;2023-04-06T06:11:12;-1.80;56.80
10057;DHT22;5068;51.286;7.518;2023-04-06T06:12:46;-1.80;56.80
10057;DHT22;5068;51.286;7.518;2023-04-06T06:14:20;-1.80;56.80
10057;DHT22;5068;51.286;7.518;2023-04-06T06:15:54;-1.70;56.80
10057;DHT22;5068;51.286;7.518;2023-04-06T06:17:28;-1.70;57.00
10057;DHT22;5068;51.286;7.518;2023-04-06T06:19:01;-1.70;57.10
10057;DHT22;5068;51.286;7.518;2023-04-06T06:20:35;-1.70;57.80
10057;DHT22;5068;51.286;7.518;2023-04-06T06:22:10;-1.60;57.90
10057;DHT22;5068;51.286;7.518;2023-04-06T06:23:46;-1.60;57.40
10057;DHT22;5068;51.286;7.518;2023-04-06T06:25:25;-1.60;57.60
10057;DHT22;5068;51.286;7.518;2023-04-06T06:26:58;-1.50;57.60
10057;DHT22;5068;51.286;7.518;2023-04-06T06:28:34;-1.50;57.70
10057;DHT22;5068;51.286;7.518;2023-04-06T06:30:08;-1.50;57.70
10057;DHT22;5068;51.286;7.518;2023-04-06T06:31:45;-1.40;57.80
10057;DHT22;5068;51.286;7.518;2023-04-06T06:33:18;-1.40;57.60
10057;DHT22;5068;51.286;7.518;2023-04-06T06:34:54;-1.40;57.70
10057;DHT22;5068;51.286;7.518;2023-04-06T06:36:27;-1.30;57.80
10057;DHT22;5068;51.286;7.518;2023-04-06T06:38:02;-1.30;57.90
10057;DHT22;5068;51.286;7.518;2023-04-06T06:39:38;-1.30;57.90
10057;DHT22;5068;51.286;7.518;2023-04-06T06:41:13;-1.20;57.90
10057;DHT22;5068;51.286;7.518;2023-04-06T06:42:46;-1.10;58.00
10057;DHT22;5068;51.286;7.518;2023-04-06T06:44:26;-1.10;57.90
10057;DHT22;5068;51.286;7.518;2023-04-06T06:45:59;-1.10;57.90
10057;DHT22;5068;51.286;7.518;2023-04-06T06:47:33;-1.10;57.80
10057;DHT22;5068;51.286;7.518;2023-04-06T06:49:07;-1.00;57.80
10057;DHT22;5068;51.286;7.518;2023-04-06T06:50:40;-0.90;57.80
10057;DHT22;5068;51.286;7.518;2023-04-06T06:52:13;-0.90;57.80
10057;DHT22;5068;51.286;7.518;2023-04-06T06:53:48;-0.80;57.80
10057;DHT22;5068;51.286;7.518;2023-04-06T06:55:21;-0.80;57.80
10057;DHT22;5068;51.286;7.518;2023-04-06T06:56:56;-0.80;57.70
10057;DHT22;5068;51.286;7.518;2023-04-06T06:58:29;-0.70;57.90
10057;DHT22;5068;51.286;7.518;2023-04-06T07:00:05;-0.70;57.90
10057;DHT22;5068;51.286;7.518;2023-04-06T07:01:41;-0.60;58.10
10057;DHT22;5068;51.286;7.518;2023-04-06T07:03:14;-0.60;57.90
10057;DHT22;5068;51.286;7.518;2023-04-06T07:04:48;-0.50;57.90
10057;DHT22;5068;51.286;7.518;2023-04-06T07:06:21;-0.50;57.90
10057;DHT22;5068;51.286;7.518;2023-04-06T07:07:55;-0.40;58.00
10057;DHT22;5068;51.286;7.518;2023-04-06T07:09:30;-0.30;58.20
10057;DHT22;5068;51.286;7.518;2023-04-06T07:11:04;-0.30;58.10
10057;DHT22;5068;51.286;7.518;2023-04-06T07:12:38;-0.20;58.20
10057;DHT22;5068;51.286;7.518;2023-04-06T07:14:12;-0.10;58.30
10057;DHT22;5068;51.286;7.518;2023-04-06T07:15:46;-0.10;58.30
10057;DHT22;5068;51.286;7.518;2023-04-06T07:17:19;0.00;58.10
10057;DHT22;5068;51.286;7.518;2023-04-06T07:18:52;0.10;58.20
10057;DHT22;5068;51.286;7.518;2023-04-06T07:20:27;0.10;58.20
10057;DHT22;5068;51.286;7.518;2023-04-06T07:22:00;0.20;58.20
10057;DHT22;5068;51.286;7.518;2023-04-06T07:23:35;0.30;58.20
10057;DHT22;5068;51.286;7.518;2023-04-06T07:25:09;0.40;58.20
10057;DHT22;5068;51.286;7.518;2023-04-06T07:26:42;0.40;58.30
10057;DHT22;5068;51.286;7.518;2023-04-06T07:28:17;0.60;58.40
10057;DHT22;5068;51.286;7.518;2023-04-06T07:29:50;0.60;58.40
10057;DHT22;5068;51.286;7.518;2023-04-06T07:31:24;0.70;58.10
10057;DHT22;5068;51.286;7.518;2023-04-06T07:32:58;0.80;57.90
10057;DHT22;5068;51.286;7.518;2023-04-06T07:34:32;0.80;57.90
10057;DHT22;5068;51.286;7.518;2023-04-06T07:36:06;0.90;58.00
10057;DHT22;5068;51.286;7.518;2023-04-06T07:37:39;0.90;58.00
10057;DHT22;5068;51.286;7.518;2023-04-06T07:39:13;1.00;57.90
10057;DHT22;5068;51.286;7.518;2023-04-06T07:40:46;1.10;57.80
10057;DHT22;5068;51.286;7.518;2023-04-06T07:42:20;1.20;57.80
10057;DHT22;5068;51.286;7.518;2023-04-06T07:44:02;1.30;58.00
10057;DHT22;5068;51.286;7.518;2023-04-06T07:45:35;1.40;58.30
10057;DHT22;5068;51.286;7.518;2023-04-06T07:47:10;1.50;58.20
10057;DHT22;5068;51.286;7.518;2023-04-06T07:48:44;1.50;58.20
10057;DHT22;5068;51.286;7.518;2023-04-06T07:50:17;1.60;58.00
10057;DHT22;5068;51.286;7.518;2023-04-06T07:51:51;1.70;57.90
10057;DHT22;5068;51.286;7.518;2023-04-06T07:53:25;1.80;57.80
10057;DHT22;5068;51.286;7.518;2023-04-06T07:54:58;1.90;57.40
10057;DHT22;5068;51.286;7.518;2023-04-06T07:56:31;2.00;56.60
10057;DHT22;5068;51.286;7.518;2023-04-06T07:58:05;2.10;56.60
10057;DHT22;5068;51.286;7.518;2023-04-06T07:59:39;2.30;56.70
10057;DHT22;5068;51.286;7.518;2023-04-06T08:01:13;2.40;56.20
10057;DHT22;5068;51.286;7.518;2023-04-06T08:02:46;2.50;55.90
10057;DHT22;5068;51.286;7.518;2023-04-06T08:04:20;2.60;55.80
10057;DHT22;5068;51.286;7.518;2023-04-06T08:05:53;2.80;55.70
10057;DHT22;5068;51.286;7.518;2023-04-06T08:07:27;2.90;55.80
10057;DHT22;5068;51.286;7.518;2023-04-06T08:09:00;3.00;55.10
10057;DHT22;5068;51.286;7.518;2023-04-06T08:10:33;3.10;54.60
10057;DHT22;5068;51.286;7.518;2023-04-06T08:12:07;3.30;54.40
10057;DHT22;5068;51.286;7.518;2023-04-06T08:13:40;3.50;54.60
10057;DHT22;5068;51.286;7.518;2023-04-06T08:15:15;3.70;53.50
10057;DHT22;5068;51.286;7.518;2023-04-06T08:16:49;3.80;52.80
10057;DHT22;5068;51.286;7.518;2023-04-06T08:18:23;4.00;52.40
10057;DHT22;5068;51.286;7.518;2023-04-06T08:19:56;4.10;52.20
10057;DHT22;5068;51.286;7.518;2023-04-06T08:21:29;4.30;52.30
10057;DHT22;5068;51.286;7.518;2023-04-06T08:23:02;4.40;52.00
10057;DHT22;5068;51.286;7.518;2023-04-06T08:24:36;4.60;52.10
10057;DHT22;5068;51.286;7.518;2023-04-06T08:26:09;4.70;51.90
10057;DHT22;5068;51.286;7.518;2023-04-06T08:27:42;4.90;51.70
10057;DHT22;5068;51.286;7.518;2023-04-06T08:29:16;5.00;51.60
10057;DHT22;5068;51.286;7.518;2023-04-06T08:30:51;5.20;51.20
10057;DHT22;5068;51.286;7.518;2023-04-06T08:32:25;5.30;50.40
10057;DHT22;5068;51.286;7.518;2023-04-06T08:33:59;5.50;49.20
10057;DHT22;5068;51.286;7.518;2023-04-06T08:35:32;5.60;49.10
10057;DHT22;5068;51.286;7.518;2023-04-06T08:37:06;5.70;48.80
10057;DHT22;5068;51.286;7.518;2023-04-06T08:38:40;5.90;48.00
10057;DHT22;5068;51.286;7.518;2023-04-06T08:40:14;6.10;47.80
10057;DHT22;5068;51.286;7.518;2023-04-06T08:41:48;6.20;47.30
10057;DHT22;5068;51.286;7.518;2023-04-06T08:43:24;6.40;47.10
10057;DHT22;5068;51.286;7.518;2023-04-06T08:45:00;6.50;46.80
10057;DHT22;5068;51.286;7.518;2023-04-06T08:46:35;6.60;46.30
10057;DHT22;5068;51.286;7.518;2023-04-06T08:48:09;6.80;46.20
10057;DHT22;5068;51.286;7.518;2023-04-06T08:49:44;6.90;46.20
10057;DHT22;5068;51.286;7.518;2023-04-06T08:51:18;7.20;46.20
10057;DHT22;5068;51.286;7.518;2023-04-06T08:52:53;7.20;45.30
10057;DHT22;5068;51.286;7.518;2023-04-06T08:54:27;7.30;45.60
10057;DHT22;5068;51.286;7.518;2023-04-06T08:56:01;7.40;45.30
10057;DHT22;5068;51.286;7.518;2023-04-06T08:57:36;7.70;45.10
10057;DHT22;5068;51.286;7.518;2023-04-06T08:59:10;7.70;44.60
10057;DHT22;5068;51.286;7.518;2023-04-06T09:00:43;7.80;44.50
10057;DHT22;5068;51.286;7.518;2023-04-06T09:02:19;8.00;44.40
10057;DHT22;5068;51.286;7.518;2023-04-06T09:03:56;8.10;44.00
10057;DHT22;5068;51.286;7.518;2023-04-06T09:05:30;8.30;43.60
10057;DHT22;5068;51.286;7.518;2023-04-06T09:07:04;8.30;44.30
10057;DHT22;5068;51.286;7.518;2023-04-06T09:08:39;8.40;43.30
10057;DHT22;5068;51.286;7.518;2023-04-06T09:10:13;8.70;43.50
10057;DHT22;5068;51.286;7.518;2023-04-06T09:11:49;8.70;43.30
10057;DHT22;5068;51.286;7.518;2023-04-06T09:13:23;8.80;43.00
10057;DHT22;5068;51.286;7.518;2023-04-06T09:14:57;8.90;42.50
10057;DHT22;5068;51.286;7.518;2023-04-06T09:16:39;9.00;42.20
10057;DHT22;5068;51.286;7.518;2023-04-06T09:18:27;9.20;41.20
10057;DHT22;5068;51.286;7.518;2023-04-06T09:20:02;9.40;40.70
10057;DHT22;5068;51.286;7.518;2023-04-06T09:21:36;9.40;40.90
10057;DHT22;5068;51.286;7.518;2023-04-06T09:23:17;9.50;39.50
10057;DHT22;5068;51.286;7.518;2023-04-06T09:24:52;9.60;40.20
10057;DHT22;5068;51.286;7.518;2023-04-06T09:26:26;9.60;40.10
10057;DHT22;5068;51.286;7.518;2023-04-06T09:28:00;9.70;39.80
10057;DHT22;5068;51.286;7.518;2023-04-06T09:29:35;9.90;39.70
10057;DHT22;5068;51.286;7.518;2023-04-06T09:31:09;9.90;39.30
10057;DHT22;5068;51.286;7.518;2023-04-06T09:32:47;10.10;39.40
10057;DHT22;5068;51.286;7.518;2023-04-06T09:34:24;10.10;38.60
10057;DHT22;5068;51.286;7.518;2023-04-06T09:35:57;10.10;38.50
10057;DHT22;5068;51.286;7.518;2023-04-06T09:37:30;10.20;38.70
10057;DHT22;5068;51.286;7.518;2023-04-06T09:39:04;10.20;38.30
10057;DHT22;5068;51.286;7.518;2023-04-06T09:40:48;10.30;38.20
10057;DHT22;5068;51.286;7.518;2023-04-06T09:42:33;10.40;37.60
10057;DHT22;5068;51.286;7.518;2023-04-06T09:44:08;10.40;38.00
10057;DHT22;5068;51.286;7.518;2023-04-06T09:45:42;10.60;37.90
10057;DHT22;5068;51.286;7.518;2023-04-06T09:47:15;10.60;37.80
10057;DHT22;5068;51.286;7.518;2023-04-06T09:48:51;10.60;37.70
10057;DHT22;5068;51.286;7.518;2023-04-06T09:50:27;10.60;37.20
10057;DHT22;5068;51.286;7.518;2023-04-06T09:52:03;10.60;36.80
10057;DHT22;5068;51.286;7.518;2023-04-06T09:53:38;10.70;36.60
10057;DHT22;5068;51.286;7.518;2023-04-06T09:55:20;10.70;36.70
10057;DHT22;5068;51.286;7.518;2023-04-06T09:57:03;10.90;36.50
10057;DHT22;5068;51.286;7.518;2023-04-06T09:58:47;10.80;36.50
10057;DHT22;5068;51.286;7.518;2023-04-06T10:00:27;10.80;36.20
10057;DHT22;5068;51.286;7.518;2023-04-06T10:02:03;10.80;36.30
10057;DHT22;5068;51.286;7.518;2023-04-06T10:03:45;10.90;36.40
10057;DHT22;5068;51.286;7.518;2023-04-06T10:05:28;10.90;35.60
10057;DHT22;5068;51.286;7.518;2023-04-06T10:07:06;10.90;36.10
10057;DHT22;5068;51.286;7.518;2023-04-06T10:08:45;10.90;36.80
10057;DHT22;5068;51.286;7.518;2023-04-06T10:10:22;10.90;36.10
10057;DHT22;5068;51.286;7.518;2023-04-06T10:11:56;10.90;36.20
10057;DHT22;5068;51.286;7.518;2023-04-06T10:13:31;11.00;36.00
10057;DHT22;5068;51.286;7.518;2023-04-06T10:15:04;10.90;35.40